createdAt,value
2023-05-25T00:01:20.589Z,11.25
2023-05-25T00:03:47.224Z,10.15
2023-05-25T00:06:15.465Z,9.43
2023-05-25T00:08:42.034Z,8.85
2023-05-25T00:11:08.584Z,7.78
2023-05-25T00:13:35.149Z,8.52
2023-05-25T00:16:01.707Z,7.18
2023-05-25T00:18:28.378Z,6.88
2023-05-25T00:20:54.865Z,9.20
2023-05-25T00:23:21.471Z,7.45
2023-05-25T00:25:48.019Z,7.35
2023-05-25T00:28:14.622Z,7.10
2023-05-25T00:30:41.449Z,7.10
2023-05-25T00:33:10.564Z,7.18
2023-05-25T00:35:37.359Z,6.63
2023-05-25T00:38:03.944Z,5.97
2023-05-25T00:40:30.506Z,7.35
2023-05-25T00:42:57.733Z,6.80
2023-05-25T00:45:24.302Z,6.50
2023-05-25T00:47:54.447Z,6.40
2023-05-25T00:50:28.081Z,7.18
2023-05-25T00:52:54.626Z,6.25
2023-05-25T00:55:21.575Z,6.80
2023-05-25T00:57:50.996Z,6.32
2023-05-25T01:00:17.897Z,5.97
2023-05-25T01:02:45.264Z,6.72
2023-05-25T01:05:12.427Z,6.00
2023-05-25T01:07:39.233Z,5.85
2023-05-25T01:10:06.960Z,5.97
2023-05-25T01:12:37.688Z,6.20
2023-05-25T01:15:05.414Z,6.28
2023-05-25T01:17:32.335Z,6.22
2023-05-25T01:20:09.624Z,5.88
2023-05-25T01:22:44.706Z,5.93
2023-05-25T01:25:21.880Z,5.95
2023-05-25T01:27:48.524Z,6.32
2023-05-25T01:30:16.965Z,6.00
2023-05-25T01:32:43.756Z,6.60
2023-05-25T01:35:11.361Z,6.20
2023-05-25T01:37:40.301Z,5.80
2023-05-25T01:40:07.189Z,6.30
2023-05-25T01:42:33.789Z,6.50
2023-05-25T01:45:00.605Z,5.93
2023-05-25T01:47:39.243Z,6.10
2023-05-25T01:50:14.975Z,5.35
2023-05-25T01:52:47.495Z,6.13
2023-05-25T01:55:16.101Z,6.43
2023-05-25T01:57:44.116Z,6.00
2023-05-25T02:00:12.179Z,5.68
2023-05-25T02:02:39.926Z,6.30
2023-05-25T02:05:06.714Z,5.55
2023-05-25T02:07:33.721Z,6.05
2023-05-25T02:10:00.510Z,5.60
2023-05-25T02:12:27.019Z,5.65
2023-05-25T02:14:53.673Z,5.65
2023-05-25T02:17:20.490Z,5.72
2023-05-25T02:19:48.977Z,6.13
2023-05-25T02:22:16.825Z,6.07
2023-05-25T02:24:43.409Z,5.72
2023-05-25T02:27:12.773Z,5.80
2023-05-25T02:29:39.746Z,5.72
2023-05-25T02:32:06.717Z,5.47
2023-05-25T02:34:33.362Z,5.07
2023-05-25T02:37:01.576Z,6.03
2023-05-25T02:39:28.577Z,6.18
2023-05-25T02:41:55.090Z,5.78
2023-05-25T02:44:22.120Z,5.47
2023-05-25T02:46:48.836Z,5.97
2023-05-25T02:49:15.549Z,5.88
2023-05-25T02:51:42.093Z,5.40
2023-05-25T02:54:08.638Z,5.70
2023-05-25T02:56:35.145Z,5.97
2023-05-25T02:59:01.785Z,5.20
2023-05-25T03:01:31.086Z,6.32
2023-05-25T03:03:57.868Z,5.25
2023-05-25T03:06:26.259Z,5.20
2023-05-25T03:08:53.071Z,5.47
2023-05-25T03:11:19.642Z,5.68
2023-05-25T03:13:46.106Z,6.05
2023-05-25T03:16:12.776Z,5.32
2023-05-25T03:18:39.369Z,6.22
2023-05-25T03:21:06.226Z,5.80
2023-05-25T03:23:32.796Z,5.75
2023-05-25T03:25:59.795Z,5.47
2023-05-25T03:28:26.460Z,5.78
2023-05-25T03:30:52.982Z,5.72
2023-05-25T03:33:19.453Z,6.00
2023-05-25T03:35:46.492Z,5.72
2023-05-25T03:38:13.140Z,6.05
2023-05-25T03:40:39.689Z,5.45
2023-05-25T03:43:06.198Z,5.60
2023-05-25T03:45:32.820Z,5.63
2023-05-25T03:47:59.483Z,6.13
2023-05-25T03:50:27.687Z,6.20
2023-05-25T03:52:54.521Z,5.53
2023-05-25T03:55:21.917Z,5.78
2023-05-25T03:57:48.538Z,5.72
2023-05-25T04:00:17.003Z,5.90
2023-05-25T04:02:44.114Z,5.80
2023-05-25T04:05:10.939Z,6.13
2023-05-25T04:07:38.158Z,5.88
2023-05-25T04:10:05.078Z,5.68
2023-05-25T04:12:32.507Z,5.13
2023-05-25T04:14:59.784Z,6.00
2023-05-25T04:17:26.514Z,5.90
2023-05-25T04:19:53.208Z,5.45
2023-05-25T04:22:20.099Z,5.90
2023-05-25T04:24:46.815Z,6.40
2023-05-25T04:27:14.469Z,6.20
2023-05-25T04:29:41.584Z,6.05
2023-05-25T04:32:09.743Z,6.28
2023-05-25T04:34:36.778Z,6.35
2023-05-25T04:37:05.599Z,5.85
2023-05-25T04:39:32.986Z,5.55
2023-05-25T04:42:01.725Z,6.13
2023-05-25T04:44:29.948Z,5.55
2023-05-25T04:46:57.005Z,6.70
2023-05-25T04:49:23.604Z,6.40
2023-05-25T04:51:54.851Z,5.85
2023-05-25T04:54:21.469Z,6.20
2023-05-25T04:56:48.309Z,5.40
2023-05-25T04:59:21.900Z,6.30
2023-05-25T05:01:48.748Z,6.53
2023-05-25T05:04:16.771Z,6.25
2023-05-25T05:06:43.542Z,6.18
2023-05-25T05:09:10.268Z,5.63
2023-05-25T05:11:36.852Z,6.65
2023-05-25T05:14:05.024Z,6.25
2023-05-25T05:16:35.236Z,5.43
2023-05-25T05:19:02.304Z,5.88
2023-05-25T05:21:29.077Z,5.60
2023-05-25T05:23:56.740Z,6.05
2023-05-25T05:26:23.608Z,6.28
2023-05-25T05:28:52.806Z,5.50
2023-05-25T05:31:19.958Z,6.28
2023-05-25T05:33:46.837Z,5.88
2023-05-25T05:36:13.597Z,5.25
2023-05-25T05:38:43.144Z,5.75
2023-05-25T05:41:13.919Z,5.95
2023-05-25T05:43:42.848Z,7.10
2023-05-25T05:46:10.520Z,5.72
2023-05-25T05:48:37.497Z,6.57
2023-05-25T05:51:07.058Z,6.45
2023-05-25T05:53:35.497Z,6.70
2023-05-25T05:56:02.677Z,6.18
2023-05-25T05:58:29.700Z,6.28
2023-05-25T06:00:56.496Z,6.72
2023-05-25T06:03:23.561Z,5.85
2023-05-25T06:05:50.644Z,6.30
2023-05-25T06:08:17.230Z,6.22
2023-05-25T06:10:43.819Z,6.32
2023-05-25T06:13:14.259Z,7.00
2023-05-25T06:15:40.964Z,7.13
2023-05-25T06:18:07.919Z,6.95
2023-05-25T06:20:35.395Z,7.10
2023-05-25T06:23:02.072Z,7.00
2023-05-25T06:25:28.548Z,7.28
2023-05-25T06:27:55.057Z,7.18
2023-05-25T06:30:21.679Z,7.00
2023-05-25T06:32:48.263Z,6.43
2023-05-25T06:35:19.819Z,6.38
2023-05-25T06:37:47.383Z,7.13
2023-05-25T06:40:14.486Z,6.60
2023-05-25T06:42:41.693Z,7.30
2023-05-25T06:45:08.880Z,7.65
2023-05-25T06:47:35.741Z,7.13
2023-05-25T06:50:02.261Z,7.32
2023-05-25T06:52:28.891Z,7.13
2023-05-25T06:54:55.981Z,7.03
2023-05-25T06:57:23.218Z,7.47
2023-05-25T06:59:49.888Z,6.95
2023-05-25T07:02:16.504Z,7.38
2023-05-25T07:04:43.145Z,7.45
2023-05-25T07:07:09.822Z,8.80
2023-05-25T07:09:36.378Z,7.18
2023-05-25T07:12:02.954Z,7.22
2023-05-25T07:14:29.487Z,7.50
2023-05-25T07:16:56.787Z,7.97
2023-05-25T07:19:23.324Z,8.48
2023-05-25T07:21:49.899Z,8.65
2023-05-25T07:24:16.475Z,8.60
2023-05-25T07:26:44.529Z,7.95
2023-05-25T07:29:12.351Z,7.53
2023-05-25T07:31:38.988Z,7.57
2023-05-25T07:34:05.658Z,7.00
2023-05-25T07:36:32.680Z,7.15
2023-05-25T07:38:59.217Z,6.72
2023-05-25T07:41:26.403Z,6.60
2023-05-25T07:43:52.932Z,6.50
2023-05-25T07:46:25.084Z,7.25
2023-05-25T07:48:51.966Z,7.35
2023-05-25T07:51:18.520Z,6.97
2023-05-25T07:53:45.030Z,5.90
2023-05-25T07:56:11.640Z,7.57
2023-05-25T07:58:38.163Z,8.70
2023-05-25T08:01:04.719Z,7.35
2023-05-25T08:03:44.319Z,8.10
2023-05-25T08:06:15.845Z,7.30
2023-05-25T08:08:45.021Z,6.85
2023-05-25T08:11:11.686Z,8.15
2023-05-25T08:13:38.579Z,8.30
2023-05-25T08:16:05.237Z,8.13
2023-05-25T08:18:31.853Z,7.90
2023-05-25T08:20:58.448Z,7.95
2023-05-25T08:23:24.945Z,8.05
2023-05-25T08:25:51.598Z,7.88
2023-05-25T08:28:18.232Z,7.30
2023-05-25T08:30:45.558Z,7.47
2023-05-25T08:33:12.973Z,7.80
2023-05-25T08:35:43.072Z,7.35
2023-05-25T08:38:09.908Z,7.90
2023-05-25T08:40:36.763Z,8.70
2023-05-25T08:43:03.314Z,7.80
2023-05-25T08:45:35.526Z,8.07
2023-05-25T08:48:05.143Z,8.13
2023-05-25T08:50:32.611Z,7.35
2023-05-25T08:53:02.674Z,8.90
2023-05-25T08:55:31.152Z,8.25
2023-05-25T08:58:05.598Z,8.75
2023-05-25T09:00:34.409Z,7.97
2023-05-25T09:03:09.875Z,8.48
2023-05-25T09:05:38.036Z,8.65
2023-05-25T09:08:08.655Z,8.45
2023-05-25T09:10:35.633Z,8.10
2023-05-25T09:13:16.730Z,9.05
2023-05-25T09:15:48.070Z,8.45
2023-05-25T09:18:14.632Z,7.70
2023-05-25T09:20:44.260Z,8.32
2023-05-25T09:23:13.317Z,8.27
2023-05-25T09:25:41.130Z,8.30
2023-05-25T09:28:25.744Z,8.70
2023-05-25T09:30:54.130Z,8.20
2023-05-25T09:33:21.056Z,8.05
2023-05-25T09:35:47.769Z,8.38
2023-05-25T09:38:15.684Z,8.50
2023-05-25T09:40:42.911Z,7.82
2023-05-25T09:43:09.888Z,8.40
2023-05-25T09:45:38.375Z,8.18
2023-05-25T09:48:06.506Z,8.23
2023-05-25T09:50:33.423Z,8.15
2023-05-25T09:53:00.566Z,8.68
2023-05-25T09:55:43.970Z,8.15
2023-05-25T09:58:16.980Z,8.40
2023-05-25T10:00:43.964Z,8.77
2023-05-25T10:03:14.987Z,7.90
2023-05-25T10:05:41.654Z,8.25
2023-05-25T10:08:08.999Z,7.13
2023-05-25T10:10:35.940Z,8.63
2023-05-25T10:13:03.842Z,8.45
2023-05-25T10:15:31.325Z,8.48
2023-05-25T10:17:58.501Z,7.82
2023-05-25T10:20:29.308Z,8.25
2023-05-25T10:22:56.651Z,8.27
2023-05-25T10:25:32.838Z,8.07
2023-05-25T10:28:00.356Z,7.80
2023-05-25T10:30:27.869Z,9.10
2023-05-25T10:32:57.739Z,8.32
2023-05-25T10:35:24.646Z,8.00
2023-05-25T10:37:52.407Z,7.78
2023-05-25T10:40:22.807Z,7.43
2023-05-25T10:42:52.042Z,8.23
2023-05-25T10:45:19.449Z,8.95
2023-05-25T10:47:46.604Z,7.93
2023-05-25T10:50:27.149Z,7.15
2023-05-25T10:53:01.477Z,7.15
2023-05-25T10:55:31.975Z,7.68
2023-05-25T10:58:09.455Z,8.10
2023-05-25T11:00:36.387Z,7.13
2023-05-25T11:03:03.529Z,8.60
2023-05-25T11:05:31.258Z,7.38
2023-05-25T11:08:01.823Z,8.02
2023-05-25T11:10:44.035Z,6.88
2023-05-25T11:13:29.186Z,8.40
2023-05-25T11:16:12.493Z,7.50
2023-05-25T11:18:40.791Z,7.10
2023-05-25T11:21:21.380Z,6.57
2023-05-25T11:23:54.338Z,8.00
2023-05-25T11:26:24.838Z,7.85
2023-05-25T11:28:52.039Z,7.10
2023-05-25T11:31:35.870Z,8.73
2023-05-25T11:34:05.667Z,7.25
2023-05-25T11:36:34.238Z,7.13
2023-05-25T11:39:06.864Z,6.65
2023-05-25T11:41:38.579Z,7.57
2023-05-25T11:44:07.025Z,6.75
2023-05-25T11:46:34.867Z,6.63
2023-05-25T11:49:01.742Z,6.68
2023-05-25T11:51:29.379Z,7.57
2023-05-25T11:53:56.771Z,7.05
2023-05-25T11:56:34.378Z,7.32
2023-05-25T11:59:02.425Z,7.20
2023-05-25T12:01:31.977Z,8.05
2023-05-25T12:03:58.981Z,7.28
2023-05-25T12:06:29.613Z,6.78
2023-05-25T12:08:56.814Z,7.60
2023-05-25T12:11:29.203Z,7.10
2023-05-25T12:13:55.998Z,7.03
2023-05-25T12:16:23.266Z,6.93
2023-05-25T12:18:50.342Z,6.43
2023-05-25T12:21:17.157Z,6.47
2023-05-25T12:23:43.896Z,7.10
2023-05-25T12:26:12.047Z,6.85
2023-05-25T12:28:38.623Z,6.70
2023-05-25T12:31:24.417Z,6.90
2023-05-25T12:34:03.778Z,6.25
2023-05-25T12:36:44.368Z,6.60
2023-05-25T12:39:12.254Z,6.60
2023-05-25T12:41:43.089Z,7.10
2023-05-25T12:44:16.555Z,7.15
2023-05-25T12:46:43.193Z,7.80
2023-05-25T12:49:45.302Z,6.97
2023-05-25T12:52:12.115Z,7.03
2023-05-25T12:54:38.888Z,6.97
2023-05-25T12:57:08.638Z,7.28
2023-05-25T12:59:38.543Z,6.80
2023-05-25T13:02:05.888Z,7.60
2023-05-25T13:04:32.814Z,7.32
2023-05-25T13:06:59.332Z,6.75
2023-05-25T13:09:26.945Z,7.22
2023-05-25T13:11:54.752Z,7.63
2023-05-25T13:14:22.023Z,6.90
2023-05-25T13:16:49.290Z,7.32
2023-05-25T13:19:16.148Z,6.32
2023-05-25T13:21:42.741Z,7.57
2023-05-25T13:24:09.368Z,7.10
2023-05-25T13:26:35.893Z,6.38
2023-05-25T13:29:02.639Z,6.97
2023-05-25T13:31:29.221Z,8.07
2023-05-25T13:33:57.190Z,6.90
2023-05-25T13:36:23.726Z,7.03
2023-05-25T13:38:50.523Z,6.43
2023-05-25T13:41:18.600Z,6.43
2023-05-25T13:43:45.212Z,6.65
2023-05-25T13:46:21.826Z,6.60
2023-05-25T13:48:48.736Z,8.02
2023-05-25T13:51:15.663Z,7.15
2023-05-25T13:53:42.445Z,7.15
2023-05-25T13:56:09.656Z,7.43
2023-05-25T13:58:36.997Z,8.18
2023-05-25T14:01:04.048Z,6.95
2023-05-25T14:03:30.777Z,7.20
2023-05-25T14:05:57.573Z,7.15
2023-05-25T14:08:24.350Z,7.30
2023-05-25T14:10:51.056Z,6.32
2023-05-25T14:13:19.825Z,7.00
2023-05-25T14:15:46.780Z,6.57
2023-05-25T14:18:14.451Z,7.32
2023-05-25T14:20:42.859Z,6.85
2023-05-25T14:23:18.232Z,6.50
2023-05-25T14:25:46.025Z,6.25
2023-05-25T14:28:13.274Z,6.43
2023-05-25T14:30:43.334Z,6.82
2023-05-25T14:33:14.110Z,6.72
2023-05-25T14:35:45.184Z,6.25
2023-05-25T14:38:12.190Z,6.18
2023-05-25T14:40:38.926Z,6.20
2023-05-25T14:43:05.667Z,6.13
2023-05-25T14:45:33.228Z,6.43
2023-05-25T14:48:15.199Z,6.50
2023-05-25T14:50:44.459Z,6.57
2023-05-25T14:53:11.300Z,6.88
2023-05-25T14:55:38.163Z,6.25
2023-05-25T14:58:04.658Z,6.25
2023-05-25T15:00:31.233Z,5.70
2023-05-25T15:02:57.950Z,5.53
2023-05-25T15:05:25.665Z,5.47
2023-05-25T15:07:52.244Z,5.35
2023-05-25T15:10:18.954Z,4.55
2023-05-25T15:12:50.350Z,5.07
2023-05-25T15:15:17.209Z,4.30
2023-05-25T15:17:43.842Z,4.03
2023-05-25T15:20:11.553Z,4.38
2023-05-25T15:22:38.536Z,4.18
2023-05-25T15:25:06.426Z,4.25
2023-05-25T15:27:34.855Z,4.45
2023-05-25T15:30:01.516Z,4.20
2023-05-25T15:32:28.113Z,4.68
2023-05-25T15:34:54.644Z,4.53
2023-05-25T15:37:21.185Z,4.70
2023-05-25T15:39:47.703Z,4.00
2023-05-25T15:42:15.457Z,4.70
2023-05-25T15:44:45.111Z,4.82
2023-05-25T15:47:11.952Z,4.80
2023-05-25T15:49:43.074Z,4.15
2023-05-25T15:52:09.665Z,5.05
2023-05-25T15:54:37.037Z,4.88
2023-05-25T15:57:03.737Z,3.95
2023-05-25T15:59:30.436Z,4.10
2023-05-25T16:01:57.090Z,4.65
2023-05-25T16:04:27.578Z,3.70
2023-05-25T16:06:54.594Z,4.43
2023-05-25T16:09:21.277Z,4.38
2023-05-25T16:11:51.421Z,4.88
2023-05-25T16:14:18.235Z,4.25
2023-05-25T16:16:44.921Z,4.72
2023-05-25T16:19:13.880Z,4.32
2023-05-25T16:21:40.972Z,4.00
2023-05-25T16:24:07.615Z,4.30
2023-05-25T16:26:35.313Z,3.83
2023-05-25T16:29:03.366Z,3.90
2023-05-25T16:31:30.097Z,4.18
2023-05-25T16:33:57.936Z,3.92
2023-05-25T16:36:26.577Z,4.45
2023-05-25T16:38:53.543Z,3.80
2023-05-25T16:41:20.158Z,4.32
2023-05-25T16:43:48.903Z,5.40
2023-05-25T16:46:15.545Z,4.65
2023-05-25T16:48:45.521Z,4.70
2023-05-25T16:51:15.217Z,4.35
2023-05-25T16:53:43.560Z,4.40
2023-05-25T16:56:10.353Z,4.65
2023-05-25T16:58:37.484Z,4.28
2023-05-25T17:01:06.041Z,5.05
2023-05-25T17:03:34.908Z,5.18
2023-05-25T17:06:01.423Z,5.55
2023-05-25T17:08:28.024Z,4.45
2023-05-25T17:10:54.793Z,4.18
2023-05-25T17:13:21.712Z,4.78
2023-05-25T17:15:49.589Z,4.55
2023-05-25T17:18:21.832Z,4.43
2023-05-25T17:20:48.521Z,4.90
2023-05-25T17:23:16.889Z,3.95
2023-05-25T17:25:44.967Z,4.40
2023-05-25T17:28:13.547Z,4.95
2023-05-25T17:30:40.213Z,5.05
2023-05-25T17:33:16.412Z,4.85
2023-05-25T17:36:01.801Z,4.35
2023-05-25T17:38:40.787Z,4.93
2023-05-25T17:41:33.447Z,4.90
2023-05-25T17:44:03.006Z,5.40
2023-05-25T17:46:29.969Z,4.95
2023-05-25T17:48:56.871Z,5.03
2023-05-25T17:51:25.183Z,5.47
2023-05-25T17:53:51.928Z,6.20
2023-05-25T17:56:18.498Z,5.65
2023-05-25T17:58:47.520Z,5.40
2023-05-25T18:01:15.030Z,5.43
2023-05-25T18:03:43.193Z,5.60
2023-05-25T18:06:10.158Z,6.10
2023-05-25T18:08:38.841Z,5.75
2023-05-25T18:11:06.008Z,6.20
2023-05-25T18:13:36.697Z,5.65
2023-05-25T18:16:03.566Z,5.57
2023-05-25T18:18:30.237Z,6.32
2023-05-25T18:21:02.552Z,6.13
2023-05-25T18:23:29.105Z,5.97
2023-05-25T18:25:58.412Z,5.97
2023-05-25T18:28:25.283Z,6.03
2023-05-25T18:30:51.998Z,6.88
2023-05-25T18:33:18.728Z,6.18
2023-05-25T18:35:47.246Z,6.65
2023-05-25T18:38:14.020Z,6.13
2023-05-25T18:40:40.729Z,5.95
2023-05-25T18:43:07.864Z,8.02
2023-05-25T18:45:34.436Z,6.13
2023-05-25T18:48:07.381Z,6.28
2023-05-25T18:50:42.648Z,7.03
2023-05-25T18:53:22.826Z,6.10
2023-05-25T18:56:06.032Z,6.72
2023-05-25T18:58:48.730Z,6.55
2023-05-25T19:01:24.942Z,5.78
2023-05-25T19:04:00.182Z,6.35
2023-05-25T19:06:32.046Z,5.90
2023-05-25T19:09:04.281Z,6.88
2023-05-25T19:11:48.691Z,6.43
2023-05-25T19:14:29.434Z,6.00
2023-05-25T19:17:05.871Z,6.65
2023-05-25T19:19:40.807Z,6.15
2023-05-25T19:22:17.218Z,6.32
2023-05-25T19:25:00.715Z,6.70
2023-05-25T19:27:33.210Z,6.50
2023-05-25T19:30:15.228Z,6.38
2023-05-25T19:32:45.258Z,5.85
2023-05-25T19:35:26.071Z,5.97
2023-05-25T19:38:06.990Z,6.32
2023-05-25T19:40:47.164Z,6.00
2023-05-25T19:43:31.568Z,6.32
2023-05-25T19:46:18.133Z,5.47
2023-05-25T19:48:58.398Z,6.38
2023-05-25T19:51:46.127Z,5.93
2023-05-25T19:54:28.079Z,5.57
2023-05-25T19:56:54.661Z,5.68
2023-05-25T19:59:26.952Z,6.40
2023-05-25T20:01:54.172Z,6.15
2023-05-25T20:04:39.766Z,6.22
2023-05-25T20:07:25.005Z,6.07
2023-05-25T20:10:05.728Z,5.65
2023-05-25T20:12:49.708Z,5.63
2023-05-25T20:15:25.068Z,5.75
2023-05-25T20:18:04.211Z,5.28
2023-05-25T20:20:44.689Z,5.78
2023-05-25T20:23:12.216Z,5.93
2023-05-25T20:25:52.434Z,6.03
2023-05-25T20:28:25.369Z,5.60
2023-05-25T20:31:04.886Z,6.38
2023-05-25T20:33:33.004Z,5.47
2023-05-25T20:35:59.601Z,5.82
2023-05-25T20:38:37.684Z,6.30
2023-05-25T20:41:16.182Z,6.35
2023-05-25T20:43:51.827Z,6.10
2023-05-25T20:46:30.901Z,6.13
2023-05-25T20:49:20.280Z,6.80
2023-05-25T20:52:03.218Z,5.88
2023-05-25T20:54:30.144Z,6.40
2023-05-25T20:57:03.969Z,6.00
2023-05-25T20:59:31.760Z,5.85
2023-05-25T21:02:00.293Z,5.97
2023-05-25T21:04:30.453Z,5.88
2023-05-25T21:06:58.408Z,5.85
2023-05-25T21:09:27.170Z,5.68
2023-05-25T21:11:53.867Z,5.75
2023-05-25T21:14:20.560Z,6.05
2023-05-25T21:16:47.094Z,5.60
2023-05-25T21:19:32.984Z,6.22
2023-05-25T21:22:21.270Z,6.53
2023-05-25T21:24:56.617Z,6.25
2023-05-25T21:27:35.036Z,5.93
2023-05-25T21:30:18.058Z,6.40
2023-05-25T21:32:48.656Z,6.53
2023-05-25T21:35:34.252Z,6.63
2023-05-25T21:38:17.136Z,6.67
2023-05-25T21:41:01.724Z,6.65
2023-05-25T21:43:40.264Z,6.35
2023-05-25T21:46:33.759Z,6.40
2023-05-25T21:49:16.994Z,6.15
2023-05-25T21:51:48.835Z,6.43
2023-05-25T21:54:19.596Z,6.57
2023-05-25T21:56:59.772Z,7.07
2023-05-25T21:59:36.020Z,6.50
2023-05-25T22:02:17.206Z,7.05
2023-05-25T22:04:58.169Z,6.85
2023-05-25T22:07:37.396Z,7.20
2023-05-25T22:10:20.967Z,5.95
2023-05-25T22:13:03.426Z,6.00
2023-05-25T22:15:44.982Z,5.80
2023-05-25T22:18:25.824Z,5.85
2023-05-25T22:21:07.223Z,5.68
2023-05-25T22:23:52.215Z,5.65
2023-05-25T22:26:31.908Z,5.88
2023-05-25T22:29:16.633Z,5.70
2023-05-25T22:31:59.963Z,6.10
2023-05-25T22:34:36.242Z,6.40
2023-05-25T22:37:05.552Z,5.47
2023-05-25T22:39:43.460Z,6.07
2023-05-25T22:42:16.461Z,5.55
2023-05-25T22:44:57.335Z,5.68
2023-05-25T22:47:26.676Z,5.80
2023-05-25T22:50:07.484Z,5.28
2023-05-25T22:52:57.435Z,5.68
2023-05-25T22:55:36.825Z,5.32
2023-05-25T22:58:18.421Z,5.90
2023-05-25T23:01:06.122Z,5.85
2023-05-25T23:03:48.452Z,5.68
2023-05-25T23:06:50.769Z,6.05
2023-05-25T23:09:27.142Z,5.07
2023-05-25T23:11:57.482Z,5.43
2023-05-25T23:14:41.348Z,5.32
2023-05-25T23:17:27.781Z,5.03
2023-05-25T23:19:57.169Z,5.53
2023-05-25T23:22:34.686Z,5.93
2023-05-25T23:25:13.992Z,5.28
2023-05-25T23:27:56.350Z,5.88
2023-05-25T23:30:38.134Z,5.85
2023-05-25T23:33:17.575Z,6.13
2023-05-25T23:35:56.800Z,5.85
2023-05-25T23:38:38.175Z,5.57
2023-05-25T23:41:09.900Z,6.50
2023-05-25T23:43:58.740Z,6.60
2023-05-25T23:46:39.574Z,6.05
2023-05-25T23:49:17.408Z,6.05
2023-05-25T23:51:56.900Z,6.07
2023-05-25T23:54:34.272Z,5.97
2023-05-25T23:57:14.562Z,6.22
2023-05-25T23:59:57.185Z,6.45
